Time;durP1;ratioP1;P1;durP2;ratioP2;P2;SDS_P1;SDS_P2;PMS_P1;PMS_P2;Temp;Humidity;BMP_temperature;BMP_pressure;BME280_temperature;BME280_humidity;BME280_pressure;Samples;Min_cycle;Max_cycle;Signal;HPM_P1;HPM_P2
2022/09/27 08:26:07;;;;;;;11.25;1.65;;;12.00;99.90;;;;;;5094775;22;20056;-70
2022/09/27 08:28:33;;;;;;;7.82;1.40;;;12.10;99.90;;;;;;5063926;28;20326;-69
2022/09/27 08:30:58;;;;;;;8.02;1.40;;;12.00;99.90;;;;;;5079763;28;20115;-68
2022/09/27 08:33:25;;;;;;;8.80;1.15;;;12.00;99.90;;;;;;5077601;28;20039;-68
2022/09/27 08:35:51;;;;;;;10.93;1.42;;;11.90;99.90;;;;;;5061222;28;20032;-68
2022/09/27 08:38:17;;;;;;;10.27;1.40;;;11.90;99.90;;;;;;5082532;28;20032;-67
2022/09/27 08:40:50;;;;;;;9.85;1.52;;;11.90;99.90;;;;;;5081467;28;20040;-69
2022/09/27 08:43:33;;;;;;;6.90;1.25;;;12.00;99.90;;;;;;5058549;28;20493;-71
2022/09/27 08:46:14;;;;;;;11.20;2.05;;;12.20;99.90;;;;;;5080096;28;20085;-69
2022/09/27 08:48:41;;;;;;;15.23;2.35;;;12.40;99.90;;;;;;5087357;28;20867;-68
2022/09/27 08:51:11;;;;;;;8.85;1.60;;;12.60;99.90;;;;;;5087791;28;20032;-69
2022/09/27 08:53:45;;;;;;;10.07;1.70;;;12.80;99.90;;;;;;5084455;28;20601;-68
2022/09/27 08:56:11;;;;;;;14.23;1.88;;;13.00;99.90;;;;;;5076510;28;20028;-68
2022/09/27 08:58:47;;;;;;;9.20;1.63;;;13.10;99.90;;;;;;5078946;28;20098;-71
2022/09/27 09:01:15;;;;;;;10.20;1.33;;;13.20;99.90;;;;;;5080766;28;20521;-68
2022/09/27 09:03:56;;;;;;;7.35;1.60;;;13.30;99.90;;;;;;5085513;28;20493;-70
2022/09/27 09:06:33;;;;;;;12.88;1.75;;;13.40;99.90;;;;;;5086717;28;20134;-70
2022/09/27 09:09:17;;;;;;;8.10;1.60;;;13.50;99.90;;;;;;5070758;28;20124;-68
2022/09/27 09:15:13;;;;;;;6.78;1.10;;;13.70;99.90;;;;;;5091852;28;20038;-69
2022/09/27 09:18:00;;;;;;;8.25;1.60;;;13.60;99.90;;;;;;4988829;28;20030;-68
2022/09/27 09:20:47;;;;;;;6.85;1.17;;;13.60;99.90;;;;;;4988416;28;20483;-68
2022/09/27 09:23:39;;;;;;;12.02;1.85;;;13.70;99.90;;;;;;4989328;28;20046;-68
2022/09/27 09:26:21;;;;;;;11.25;1.75;;;13.90;99.90;;;;;;4983064;28;20145;-68
2022/09/27 09:29:35;;;;;;;9.40;1.50;;;14.10;99.90;;;;;;4982492;28;20046;-68
2022/09/27 09:32:15;;;;;;;10.35;1.58;;;14.00;99.90;;;;;;4961986;28;20696;-70
2022/09/27 09:34:45;;;;;;;12.05;1.92;;;14.20;99.90;;;;;;4978714;28;20589;-70
2022/09/27 09:37:13;;;;;;;;;;;14.30;99.90;;;;;;4973300;28;20034;-69
2022/09/27 09:39:46;;;;;;;10.00;1.70;;;14.30;99.90;;;;;;4973199;28;19913;-70
2022/09/27 09:42:34;;;;;;;10.52;1.40;;;14.20;99.90;;;;;;4969999;28;20098;-69
2022/09/27 09:45:05;;;;;;;8.65;1.40;;;13.90;99.90;;;;;;4978650;28;20048;-70
2022/09/27 09:47:56;;;;;;;9.43;1.33;;;13.70;99.90;;;;;;4989010;28;20026;-69
2022/09/27 09:50:30;;;;;;;6.68;1.00;;;13.60;99.90;;;;;;4990530;28;20086;-70
2022/09/27 09:53:03;;;;;;;10.30;1.77;;;13.50;99.90;;;;;;5091456;28;20631;-70
2022/09/27 09:55:34;;;;;;;6.63;1.38;;;13.40;99.90;;;;;;5090031;28;20036;-69
2022/09/27 09:58:21;;;;;;;8.15;1.67;;;13.50;99.90;;;;;;5089915;28;20174;-69
2022/09/27 10:00:49;;;;;;;9.07;2.08;;;13.80;99.90;;;;;;5076015;28;20032;-69
2022/09/27 10:03:15;;;;;;;8.63;2.10;;;14.00;99.90;;;;;;5091092;28;20058;-68
2022/09/27 10:05:43;;;;;;;8.73;1.63;;;14.50;99.90;;;;;;5090950;28;20700;-70
2022/09/27 10:08:16;;;;;;;10.20;1.70;;;14.80;99.30;;;;;;5072572;28;20071;-70
2022/09/27 10:10:42;;;;;;;11.02;1.98;;;14.90;99.90;;;;;;5091178;28;20043;-69
2022/09/27 10:13:16;;;;;;;7.93;1.30;;;14.90;99.90;;;;;;5091219;28;20135;-68
2022/09/27 10:15:52;;;;;;;8.95;1.50;;;15.00;99.60;;;;;;5091172;28;20053;-70
2022/09/27 10:18:18;;;;;;;10.80;2.08;;;15.10;99.00;;;;;;5090871;28;20032;-70
2022/09/27 10:21:12;;;;;;;11.18;2.13;;;15.00;98.70;;;;;;5071845;28;20054;-71
2022/09/27 10:24:10;;;;;;;7.40;1.30;;;14.90;98.20;;;;;;5062726;28;20371;-69
2022/09/27 10:26:37;;;;;;;8.75;1.60;;;14.70;98.60;;;;;;5070254;28;20051;-70
2022/09/27 10:29:29;;;;;;;12.40;1.88;;;14.70;99.80;;;;;;5090674;28;20027;-68
2022/09/27 10:31:55;;;;;;;10.40;1.70;;;14.60;99.50;;;;;;5090437;28;20609;-69
2022/09/27 10:34:53;;;;;;;12.48;1.90;;;14.70;99.10;;;;;;5090388;28;20031;-72
2022/09/27 10:37:23;;;;;;;10.98;1.85;;;14.60;99.10;;;;;;5033906;28;20434;-72
2022/09/27 10:39:50;;;;;;;11.32;1.85;;;14.50;98.90;;;;;;5052127;28;20079;-70
2022/09/27 10:42:35;;;;;;;8.32;1.40;;;14.60;99.10;;;;;;5085941;28;20510;-70
2022/09/27 10:45:25;;;;;;;8.70;2.08;;;14.50;99.70;;;;;;5090873;28;20024;-70
2022/09/27 10:47:51;;;;;;;11.73;1.95;;;14.40;99.30;;;;;;5072218;28;20089;-70
2022/09/27 10:50:38;;;;;;;9.95;1.88;;;14.30;99.20;;;;;;5089463;28;20032;-70
2022/09/27 10:53:12;;;;;;;9.65;1.70;;;14.20;99.20;;;;;;5090152;28;20036;-69
2022/09/27 10:55:38;;;;;;;12.25;2.15;;;14.00;99.50;;;;;;5090138;28;20394;-71
2022/09/27 10:58:05;;;;;;;9.75;1.60;;;13.80;99.90;;;;;;5089900;28;20043;-70
2022/09/27 11:00:36;;;;;;;9.98;1.42;;;13.70;99.90;;;;;;5089482;28;20036;-70
2022/09/27 11:03:24;;;;;;;9.15;1.45;;;13.70;99.90;;;;;;5069955;28;20033;-70
2022/09/27 11:05:53;;;;;;;11.30;1.60;;;13.60;99.90;;;;;;5058690;28;20082;-70
2022/09/27 11:08:19;;;;;;;10.20;1.75;;;13.70;99.90;;;;;;5071455;28;20645;-72
2022/09/27 11:11:21;;;;;;;9.90;2.03;;;13.80;99.90;;;;;;5071111;28;20479;-70
2022/09/27 11:13:57;;;;;;;9.27;1.60;;;13.90;99.90;;;;;;5066298;28;20036;-70
2022/09/27 11:16:47;;;;;;;9.40;1.35;;;14.00;99.90;;;;;;5073984;28;20032;-71
2022/09/27 11:19:25;;;;;;;9.27;1.80;;;14.10;99.90;;;;;;5078518;28;20844;-69
2022/09/27 11:21:54;;;;;;;6.63;1.80;;;14.30;99.90;;;;;;5064571;28;20040;-70
2022/09/27 11:24:24;;;;;;;9.13;1.70;;;14.80;99.90;;;;;;5074755;28;20028;-71
2022/09/27 11:27:15;;;;;;;6.75;1.40;;;15.00;99.90;;;;;;5075661;28;20058;-69
2022/09/27 11:29:59;;;;;;;7.68;1.35;;;15.30;99.20;;;;;;5081861;28;20115;-70
2022/09/27 11:33:08;;;;;;;7.95;1.52;;;15.60;97.40;;;;;;5075764;28;20028;-70
2022/09/27 11:35:36;;;;;;;5.68;1.33;;;15.60;98.20;;;;;;5070810;28;20036;-72
2022/09/27 11:38:11;;;;;;;8.50;1.60;;;15.70;96.60;;;;;;5081804;28;20040;-70
2022/09/27 11:40:59;;;;;;;6.55;1.17;;;15.80;95.70;;;;;;5073780;28;20058;-67
2022/09/27 11:43:46;;;;;;;5.90;1.42;;;15.70;94.20;;;;;;5077036;28;20386;-68
2022/09/27 11:46:32;;;;;;;5.22;1.25;;;15.50;93.30;;;;;;5072737;28;20034;-70
2022/09/27 11:49:03;;;;;;;5.10;1.08;;;15.20;91.90;;;;;;5071125;28;20482;-70
2022/09/27 11:51:53;;;;;;;6.38;1.20;;;15.10;93.80;;;;;;5086313;28;20446;-68
2022/09/27 11:54:37;;;;;;;4.70;1.02;;;15.00;94.10;;;;;;5064484;28;20044;-67
2022/09/27 11:57:32;;;;;;;7.00;1.20;;;15.00;94.30;;;;;;5086244;28;20107;-67
2022/09/27 12:00:23;;;;;;;8.93;1.50;;;15.10;94.80;;;;;;5070213;28;20072;-67
2022/09/27 12:03:03;;;;;;;6.57;1.50;;;15.10;93.90;;;;;;5065001;28;20036;-67
2022/09/27 12:05:53;;;;;;;5.70;1.10;;;15.20;93.70;;;;;;5080828;28;20070;-67
2022/09/27 12:08:28;;;;;;;;;;;15.30;95.40;;;;;;5077332;28;20059;-68
2022/09/27 12:11:02;;;;;;;5.97;1.15;;;15.40;96.50;;;;;;5075372;28;19931;-67
2022/09/27 12:13:37;;;;;;;7.50;1.55;;;15.40;95.80;;;;;;5069749;28;20028;-68
2022/09/27 12:16:03;;;;;;;7.75;1.40;;;15.30;94.70;;;;;;5088416;28;20707;-68
2022/09/27 12:18:39;;;;;;;9.18;1.58;;;15.40;95.60;;;;;;5088380;28;20086;-68
2022/09/27 12:21:08;;;;;;;8.00;1.70;;;15.60;95.40;;;;;;5062943;28;20028;-68
2022/09/27 12:23:58;;;;;;;7.55;1.65;;;15.80;94.40;;;;;;5087736;28;20135;-68
2022/09/27 12:26:43;;;;;;;8.75;1.58;;;16.20;92.20;;;;;;5088113;28;20182;-68
2022/09/27 12:29:44;;;;;;;6.40;1.50;;;16.40;92.10;;;;;;5088450;28;20036;-69
2022/09/27 12:32:24;;;;;;;8.30;1.50;;;16.50;92.30;;;;;;5072531;28;20036;-68
2022/09/27 12:34:49;;;;;;;;;;;16.50;91.40;;;;;;5074955;28;20031;-68
2022/09/27 12:37:24;;;;;;;8.05;1.40;;;16.60;90.00;;;;;;5083042;28;19918;-69
2022/09/27 12:40:02;;;;;;;7.03;1.48;;;16.60;90.10;;;;;;5088573;28;20059;-68
2022/09/27 12:42:52;;;;;;;6.45;1.58;;;16.70;91.20;;;;;;5088258;28;20032;-68
2022/09/27 12:45:38;;;;;;;4.97;1.35;;;16.90;90.30;;;;;;5069566;28;20031;-69
2022/09/27 12:48:12;;;;;;;8.57;1.80;;;17.10;90.10;;;;;;5095285;28;20648;-69
2022/09/27 12:50:43;;;;;;;6.72;1.33;;;17.00;89.70;;;;;;5095602;28;20075;-69
2022/09/27 12:53:25;;;;;;;5.47;1.20;;;16.70;90.50;;;;;;5088057;28;20440;-69
2022/09/27 12:56:17;;;;;;;6.93;1.50;;;16.50;90.60;;;;;;5090481;28;20500;-69
2022/09/27 12:59:18;;;;;;;6.78;1.40;;;16.30;91.10;;;;;;5050671;28;20174;-69
2022/09/27 13:01:46;;;;;;;7.43;1.40;;;16.00;92.20;;;;;;4962534;28;20055;-69
2022/09/27 13:04:21;;;;;;;7.63;1.60;;;16.00;92.10;;;;;;4964890;28;20057;-68
2022/09/27 13:07:23;;;;;;;8.57;1.55;;;15.90;92.40;;;;;;4966006;28;20101;-68
2022/09/27 13:10:33;;;;;;;5.55;1.40;;;15.80;92.40;;;;;;4978788;28;20126;-68
2022/09/27 13:13:00;;;;;;;;;;;15.70;92.20;;;;;;4969480;28;20031;-69
2022/09/27 13:15:32;;;;;;;6.03;1.30;;;15.50;92.10;;;;;;4964118;28;20031;-69
2022/09/27 13:18:04;;;;;;;7.40;1.40;;;15.40;92.00;;;;;;4965125;28;20134;-68
2022/09/27 13:20:39;;;;;;;6.20;1.05;;;15.30;92.60;;;;;;4985730;28;20035;-68
2022/09/27 13:23:24;;;;;;;6.88;1.23;;;15.20;93.70;;;;;;4968794;28;20064;-68
2022/09/27 13:26:02;;;;;;;8.55;1.70;;;15.10;93.50;;;;;;4959371;28;20055;-68
2022/09/27 13:28:31;;;;;;;9.25;1.50;;;15.00;94.20;;;;;;4965504;28;20117;-68
2022/09/27 13:31:09;;;;;;;7.43;1.58;;;15.00;94.90;;;;;;4973232;28;20049;-68
2022/09/27 13:33:53;;;;;;;7.10;1.57;;;15.00;95.40;;;;;;4963192;28;20133;-69
2022/09/27 13:36:29;;;;;;;8.65;1.25;;;15.00;95.30;;;;;;4946716;29;20027;-68
2022/09/27 13:39:03;;;;;;;12.02;1.73;;;15.00;96.00;;;;;;5058160;28;20146;-68
2022/09/27 13:41:50;;;;;;;7.40;1.40;;;15.10;96.30;;;;;;5078151;28;20139;-68
2022/09/27 13:44:53;;;;;;;5.60;1.50;;;15.20;95.40;;;;;;5086867;28;20134;-69
2022/09/27 13:47:26;;;;;;;8.50;1.30;;;15.30;95.90;;;;;;5087377;28;20028;-68
2022/09/27 13:50:17;;;;;;;5.88;1.20;;;15.40;94.60;;;;;;5086675;28;20477;-69
2022/09/27 13:52:56;;;;;;;6.35;1.20;;;15.60;94.60;;;;;;5037319;28;20401;-68
2022/09/27 13:55:54;;;;;;;4.90;0.90;;;15.60;93.50;;;;;;5083749;28;20035;-68
2022/09/27 13:58:31;;;;;;;6.20;1.30;;;15.70;93.00;;;;;;5033248;28;20043;-68
2022/09/27 14:01:06;;;;;;;7.63;1.10;;;16.00;92.40;;;;;;5087373;28;20064;-69
2022/09/27 14:03:36;;;;;;;4.30;1.23;;;16.30;92.70;;;;;;5082164;28;20643;-68
2022/09/27 14:06:05;;;;;;;5.05;1.10;;;16.70;89.60;;;;;;5070393;28;20445;-68
2022/09/27 14:08:36;;;;;;;4.77;1.10;;;16.90;87.00;;;;;;5078364;28;20028;-68
2022/09/27 14:11:09;;;;;;;5.03;0.95;;;17.10;84.20;;;;;;5071168;28;20048;-68
2022/09/27 14:13:37;;;;;;;6.35;1.15;;;17.10;84.40;;;;;;5069337;28;20040;-69
2022/09/27 14:16:04;;;;;;;7.25;1.33;;;17.00;85.80;;;;;;5054943;28;20036;-69
2022/09/27 14:18:31;;;;;;;7.30;0.98;;;16.90;84.40;;;;;;5073103;28;20025;-68
2022/09/27 14:21:24;;;;;;;7.00;1.35;;;16.50;85.50;;;;;;5061327;28;20040;-69
2022/09/27 14:23:50;;;;;;;5.97;1.30;;;16.20;88.10;;;;;;5086454;28;20067;-69
2022/09/27 14:26:24;;;;;;;8.25;1.60;;;16.10;90.40;;;;;;5073289;28;20072;-69
2022/09/27 14:28:50;;;;;;;7.80;1.67;;;15.90;90.40;;;;;;5080057;28;20038;-69
2022/09/27 14:31:21;;;;;;;8.73;1.98;;;15.70;91.30;;;;;;5083270;28;20036;-69
2022/09/27 14:33:48;;;;;;;7.30;2.17;;;15.40;91.50;;;;;;5083179;28;20413;-69
2022/09/27 14:39:31;;;;;;;10.35;2.60;;;15.20;92.00;;;;;;5078610;28;20031;-70
2022/09/27 14:42:01;;;;;;;10.30;3.75;;;15.20;93.40;;;;;;5063890;28;20163;-71
2022/09/27 14:44:27;;;;;;;9.77;2.67;;;15.30;93.10;;;;;;5087163;28;20040;-71
2022/09/27 14:47:20;;;;;;;8.20;2.03;;;15.50;93.10;;;;;;5086956;28;20042;-72
2022/09/27 14:49:58;;;;;;;8.30;1.60;;;15.70;92.00;;;;;;5084129;28;20583;-71
2022/09/27 14:52:28;;;;;;;7.40;1.63;;;15.80;91.30;;;;;;5089088;28;20490;-72
2022/09/27 14:54:59;;;;;;;7.35;1.27;;;15.80;92.70;;;;;;5088879;28;20044;-71
2022/09/27 14:57:28;;;;;;;4.93;1.13;;;16.00;94.20;;;;;;5086913;28;20074;-71
2022/09/27 14:59:56;;;;;;;4.32;1.13;;;16.20;93.90;;;;;;5084814;28;20031;-71
2022/09/27 15:02:25;;;;;;;6.68;1.30;;;16.10;93.60;;;;;;5083715;28;20031;-71
2022/09/27 15:04:51;;;;;;;6.72;1.52;;;15.70;93.90;;;;;;5087178;28;20115;-71
2022/09/27 15:07:18;;;;;;;4.95;1.30;;;15.40;94.70;;;;;;5087614;28;20032;-71
2022/09/27 15:09:45;;;;;;;4.82;1.30;;;15.00;96.50;;;;;;5068902;28;20028;-69
2022/09/27 15:12:14;;;;;;;6.03;1.20;;;14.80;97.80;;;;;;5087033;28;20043;-72
2022/09/27 15:14:41;;;;;;;;;;;14.70;99.10;;;;;;5069105;28;20085;-70
2022/09/27 15:17:17;;;;;;;5.28;1.20;;;14.60;99.50;;;;;;5084401;28;20361;-69
2022/09/27 15:20:00;;;;;;;7.05;1.40;;;14.40;99.90;;;;;;5067668;28;20035;-70
2022/09/27 15:22:36;;;;;;;4.03;1.15;;;14.40;99.90;;;;;;5087844;28;20043;-70
2022/09/27 15:25:15;;;;;;;7.60;1.55;;;14.30;99.90;;;;;;5087214;28;20529;-69
2022/09/27 15:27:45;;;;;;;;;;;14.30;99.90;;;;;;5086055;28;20055;-71
2022/09/27 15:30:25;;;;;;;4.50;1.27;;;14.40;99.90;;;;;;5078412;28;20006;-69
2022/09/27 15:32:52;;;;;;;;;;;14.40;99.90;;;;;;5088556;28;20024;-69
2022/09/27 15:35:32;;;;;;;5.28;1.05;;;14.40;99.90;;;;;;5086759;28;20014;-69
2022/09/27 15:38:23;;;;;;;3.40;0.90;;;14.40;99.90;;;;;;5086663;28;20077;-69
2022/09/27 15:40:49;;;;;;;4.80;1.08;;;14.30;99.90;;;;;;5070339;28;20047;-69
2022/09/27 15:43:40;;;;;;;6.05;1.42;;;14.20;99.90;;;;;;5072609;28;20409;-69
2022/09/27 15:46:20;;;;;;;7.35;1.40;;;14.10;99.90;;;;;;5088984;28;20104;-69
2022/09/27 15:49:15;;;;;;;4.22;0.95;;;14.00;99.90;;;;;;5099297;28;20374;-69
2022/09/27 15:51:45;;;;;;;6.38;1.15;;;14.00;99.90;;;;;;5088521;28;20066;-69
2022/09/27 15:54:11;;;;;;;3.92;1.00;;;13.90;99.90;;;;;;5086261;28;20427;-69
2022/09/27 15:56:39;;;;;;;5.70;0.95;;;13.80;99.90;;;;;;5086848;28;20480;-69
2022/09/27 15:59:06;;;;;;;5.13;1.10;;;13.80;99.90;;;;;;5086628;28;20440;-69
2022/09/27 16:01:32;;;;;;;5.68;0.95;;;13.70;99.90;;;;;;5059163;28;20048;-69
2022/09/27 16:04:01;;;;;;;8.10;1.30;;;13.70;99.90;;;;;;5081663;28;20032;-70
2022/09/27 16:06:27;;;;;;;6.90;1.20;;;13.70;99.90;;;;;;5088432;28;20051;-70
2022/09/27 16:08:53;;;;;;;6.10;1.20;;;13.70;99.90;;;;;;5083038;28;20096;-68
2022/09/27 16:11:19;;;;;;;5.60;1.20;;;13.60;99.90;;;;;;5073561;28;20036;-71
2022/09/27 16:13:45;;;;;;;5.65;1.40;;;13.70;99.90;;;;;;5079735;28;20044;-70
2022/09/27 16:16:15;;;;;;;6.47;1.10;;;13.60;99.90;;;;;;5073587;28;20044;-68
2022/09/27 16:18:43;;;;;;;5.00;1.05;;;13.60;99.90;;;;;;5084913;28;20035;-69
2022/09/27 16:21:08;;;;;;;7.05;1.48;;;13.50;99.90;;;;;;5071230;28;20043;-68
2022/09/27 16:23:34;;;;;;;5.38;1.20;;;13.50;99.90;;;;;;5087614;28;20032;-68
2022/09/27 16:26:00;;;;;;;5.25;1.45;;;13.50;99.90;;;;;;5086521;28;20052;-68
2022/09/27 16:28:26;;;;;;;6.53;1.73;;;13.40;99.90;;;;;;5068411;28;20113;-67
2022/09/27 16:30:51;;;;;;;6.32;2.00;;;13.40;99.90;;;;;;5089656;28;20060;-67
2022/09/27 16:33:17;;;;;;;7.53;1.50;;;13.30;99.90;;;;;;5066706;28;20036;-68
2022/09/27 16:35:43;;;;;;;8.68;1.73;;;13.30;99.90;;;;;;5102394;28;20197;-67
2022/09/27 16:38:09;;;;;;;5.45;1.35;;;13.20;99.90;;;;;;5093432;28;20084;-66
2022/09/27 16:40:35;;;;;;;5.47;1.58;;;13.10;99.90;;;;;;5108054;28;20036;-67
2022/09/27 16:43:03;;;;;;;7.85;1.42;;;13.10;99.90;;;;;;5107571;28;20023;-66
2022/09/27 16:45:32;;;;;;;8.52;2.80;;;13.10;99.90;;;;;;5095050;28;20039;-67
2022/09/27 16:47:58;;;;;;;7.63;1.85;;;13.00;99.90;;;;;;5096572;28;20046;-67
2022/09/27 16:53:09;;;;;;;7.88;1.92;;;12.90;99.90;;;;;;5077569;28;20039;-67
2022/09/27 16:55:35;;;;;;;4.70;1.30;;;12.90;99.90;;;;;;5067802;28;20531;-67
2022/09/27 16:58:02;;;;;;;7.68;1.63;;;12.90;99.90;;;;;;5086185;28;20032;-68
2022/09/27 17:00:30;;;;;;;8.18;1.63;;;12.90;99.90;;;;;;5081348;28;20452;-68
2022/09/27 17:02:56;;;;;;;6.65;1.92;;;12.90;99.90;;;;;;5081246;28;20039;-68
2022/09/27 17:05:22;;;;;;;7.32;1.83;;;12.90;99.90;;;;;;5064940;28;20032;-68
2022/09/27 17:07:53;;;;;;;6.45;1.60;;;12.80;99.90;;;;;;5065414;28;20478;-68
2022/09/27 17:10:20;;;;;;;10.23;2.25;;;12.80;99.90;;;;;;5078072;28;20045;-68
2022/09/27 17:12:47;;;;;;;9.10;2.38;;;12.80;99.90;;;;;;5080073;28;20123;-69
2022/09/27 17:15:13;;;;;;;7.97;2.03;;;12.70;99.90;;;;;;5084957;28;20123;-68
2022/09/27 17:17:39;;;;;;;11.00;2.55;;;12.70;99.90;;;;;;5069576;28;20054;-68
2022/09/27 17:20:05;;;;;;;11.80;2.95;;;12.70;99.90;;;;;;5078023;28;20052;-68
2022/09/27 17:22:31;;;;;;;8.98;2.83;;;12.70;99.90;;;;;;5093601;28;20478;-68
2022/09/27 17:24:56;;;;;;;10.45;3.63;;;12.60;99.90;;;;;;5072935;28;20044;-68
2022/09/27 17:27:26;;;;;;;9.38;3.47;;;12.60;99.90;;;;;;5082373;28;20036;-68
2022/09/27 17:29:51;;;;;;;11.27;3.90;;;12.60;99.90;;;;;;5083780;28;20528;-68
2022/09/27 17:32:21;;;;;;;11.93;3.08;;;12.50;99.90;;;;;;5087161;28;20033;-69
2022/09/27 17:34:46;;;;;;;7.43;2.90;;;12.50;99.90;;;;;;5096852;28;20401;-68
2022/09/27 17:37:12;;;;;;;9.55;2.67;;;12.40;99.90;;;;;;5072025;28;20033;-68
2022/09/27 17:39:38;;;;;;;7.90;2.80;;;12.40;99.90;;;;;;5091424;28;20039;-68
2022/09/27 17:42:04;;;;;;;9.45;2.92;;;12.40;99.90;;;;;;5091160;28;20058;-67
2022/09/27 17:44:30;;;;;;;13.32;3.63;;;12.30;99.90;;;;;;5082645;28;20046;-66
2022/09/27 17:52:25;;;;;;;11.70;3.50;;;12.10;99.90;;;;;;5084646;28;20074;-65
2022/09/27 17:54:53;;;;;;;9.80;2.97;;;12.00;99.90;;;;;;5068012;28;20077;-67
2022/09/27 17:57:19;;;;;;;9.00;2.78;;;12.00;99.90;;;;;;5070167;28;20024;-66
2022/09/27 17:59:45;;;;;;;9.30;2.70;;;12.00;99.90;;;;;;5087352;28;20036;-66
2022/09/27 18:02:10;;;;;;;8.40;2.92;;;12.00;99.90;;;;;;5090696;28;20085;-67
2022/09/27 18:04:36;;;;;;;10.60;2.95;;;12.00;99.90;;;;;;5066563;28;20024;-67
2022/09/27 18:07:02;;;;;;;7.82;2.88;;;12.00;99.90;;;;;;5089777;28;20115;-67
2022/09/27 18:09:27;;;;;;;13.90;4.15;;;12.00;99.90;;;;;;5091698;28;20043;-67
2022/09/27 18:11:53;;;;;;;10.55;2.83;;;12.00;99.90;;;;;;5068212;28;20039;-66
2022/09/27 18:14:19;;;;;;;8.02;2.17;;;11.90;99.90;;;;;;5088937;28;20038;-66
2022/09/27 18:16:45;;;;;;;9.60;2.17;;;11.90;99.90;;;;;;5064224;28;20063;-66
2022/09/27 18:19:15;;;;;;;7.00;2.53;;;11.90;99.90;;;;;;5070944;28;20119;-66
2022/09/27 18:21:41;;;;;;;7.82;2.80;;;11.80;99.90;;;;;;5089760;28;20044;-68
2022/09/27 18:24:08;;;;;;;11.75;3.20;;;11.80;99.90;;;;;;5089916;28;20082;-68
2022/09/27 18:26:39;;;;;;;9.18;3.08;;;11.80;99.90;;;;;;5090506;28;20501;-68
2022/09/27 18:29:13;;;;;;;9.20;3.28;;;11.80;99.90;;;;;;5072281;28;20028;-67
2022/09/27 18:31:39;;;;;;;10.50;3.33;;;11.80;99.90;;;;;;5071509;28;20032;-68
2022/09/27 18:34:05;;;;;;;10.63;3.30;;;11.70;99.90;;;;;;5089548;28;20032;-66
2022/09/27 18:36:31;;;;;;;9.45;3.28;;;11.70;99.90;;;;;;5071006;28;20063;-67
2022/09/27 18:38:59;;;;;;;10.75;3.15;;;11.70;99.90;;;;;;5070730;28;20056;-68
2022/09/27 18:41:30;;;;;;;10.43;3.55;;;11.70;99.90;;;;;;5086396;28;20044;-67
2022/09/27 18:43:58;;;;;;;12.27;3.40;;;11.70;99.90;;;;;;5083598;28;20120;-66
2022/09/27 18:46:26;;;;;;;11.50;4.28;;;11.60;99.90;;;;;;5087666;28;20059;-67
2022/09/27 18:48:52;;;;;;;11.88;4.30;;;11.60;99.90;;;;;;5069413;28;20036;-67
2022/09/27 18:51:25;;;;;;;11.88;3.90;;;11.50;99.90;;;;;;5068018;28;20490;-67
2022/09/27 18:53:56;;;;;;;9.93;4.20;;;11.50;99.90;;;;;;5087867;28;20739;-67
2022/09/27 18:56:22;;;;;;;12.30;4.50;;;11.40;99.90;;;;;;5088243;28;20031;-67
2022/09/27 18:58:49;;;;;;;10.73;3.50;;;11.40;99.90;;;;;;5089643;28;20028;-67
2022/09/27 19:01:15;;;;;;;11.60;4.53;;;11.40;99.90;;;;;;5089161;28;20040;-67
2022/09/27 19:03:42;;;;;;;10.88;4.85;;;11.40;99.90;;;;;;5070649;28;20024;-66
2022/09/27 19:06:15;;;;;;;11.75;4.13;;;11.30;99.90;;;;;;5087500;28;20035;-68
2022/09/27 19:08:41;;;;;;;9.55;4.03;;;11.30;99.90;;;;;;5087711;28;20047;-68
2022/09/27 19:11:13;;;;;;;10.38;3.90;;;11.30;99.90;;;;;;5086080;28;20397;-67
2022/09/27 19:13:39;;;;;;;9.43;3.78;;;11.30;99.90;;;;;;5082922;28;20028;-67
2022/09/27 19:16:05;;;;;;;11.30;4.35;;;11.30;99.90;;;;;;5086389;28;20046;-67
2022/09/27 19:18:31;;;;;;;8.85;2.70;;;11.30;99.90;;;;;;5080466;28;20031;-66
2022/09/27 19:21:12;;;;;;;10.27;3.08;;;11.30;99.90;;;;;;5087814;28;20032;-66
2022/09/27 19:23:38;;;;;;;8.52;2.70;;;11.20;99.90;;;;;;5088548;28;20028;-68
2022/09/27 19:26:06;;;;;;;8.30;3.15;;;11.20;99.90;;;;;;5087449;28;20162;-67
2022/09/27 19:28:34;;;;;;;8.15;3.38;;;11.20;99.90;;;;;;5067293;28;20054;-67
2022/09/27 19:31:04;;;;;;;9.95;3.50;;;11.20;99.90;;;;;;5087816;28;20032;-66
2022/09/27 19:33:34;;;;;;;9.55;2.92;;;11.20;99.90;;;;;;5086970;28;20768;-67
2022/09/27 19:36:02;;;;;;;8.40;2.97;;;11.10;99.90;;;;;;5083322;28;20433;-68
2022/09/27 19:38:32;;;;;;;9.18;2.65;;;11.20;99.90;;;;;;5078837;28;20035;-67
2022/09/27 19:40:58;;;;;;;;;;;11.10;99.90;;;;;;5069389;28;20042;-67
2022/09/27 19:43:24;;;;;;;8.73;2.33;;;11.20;99.90;;;;;;5090079;28;19915;-67
2022/09/27 19:45:49;;;;;;;7.93;2.30;;;11.10;99.90;;;;;;5087324;28;20051;-68
2022/09/27 19:48:15;;;;;;;8.68;2.80;;;11.10;99.90;;;;;;5089907;28;20042;-67
2022/09/27 19:50:40;;;;;;;8.13;2.10;;;11.10;99.90;;;;;;5063129;28;20037;-68
2022/09/27 19:53:06;;;;;;;8.73;2.75;;;11.10;99.90;;;;;;5084615;28;20130;-67
2022/09/27 19:55:32;;;;;;;6.97;2.05;;;11.00;99.90;;;;;;5068568;28;20032;-67
2022/09/27 19:57:58;;;;;;;9.48;2.70;;;11.00;99.90;;;;;;5086268;28;20028;-66
2022/09/27 20:00:24;;;;;;;7.45;2.28;;;11.00;99.90;;;;;;5087389;28;20533;-67
2022/09/27 20:02:50;;;;;;;7.15;2.08;;;11.00;99.90;;;;;;5085939;28;20036;-66
2022/09/27 20:05:16;;;;;;;8.43;2.72;;;11.00;99.90;;;;;;5087360;28;20055;-66
2022/09/27 20:07:45;;;;;;;10.25;2.53;;;11.00;99.90;;;;;;5064655;28;20149;-67
2022/09/27 20:10:10;;;;;;;8.40;2.10;;;10.90;99.90;;;;;;5086879;28;20032;-67
2022/09/27 20:12:36;;;;;;;7.45;2.15;;;10.90;99.90;;;;;;5086326;28;20031;-67
2022/09/27 20:15:02;;;;;;;6.60;1.92;;;10.90;99.90;;;;;;5093694;28;20039;-66
2022/09/27 20:17:32;;;;;;;7.72;1.77;;;10.90;99.90;;;;;;5075239;28;20039;-66
2022/09/27 20:19:58;;;;;;;7.53;1.92;;;10.90;99.90;;;;;;5087486;28;20040;-66
2022/09/27 20:22:23;;;;;;;8.68;1.60;;;10.80;99.90;;;;;;5069336;28;20518;-67
2022/09/27 20:24:49;;;;;;;6.60;1.90;;;10.80;99.90;;;;;;5088230;28;20084;-66
2022/09/27 20:27:14;;;;;;;6.97;1.83;;;10.80;99.90;;;;;;5070017;28;20077;-66
2022/09/27 20:29:40;;;;;;;7.38;1.80;;;10.70;99.90;;;;;;5069187;28;20509;-66
2022/09/27 20:32:06;;;;;;;9.52;2.75;;;10.70;99.90;;;;;;5069269;28;20043;-67
2022/09/27 20:34:31;;;;;;;8.55;2.40;;;10.70;99.90;;;;;;5069106;28;20028;-66
2022/09/27 20:36:57;;;;;;;10.32;2.60;;;10.60;99.90;;;;;;5087220;28;20436;-67
2022/09/27 20:39:23;;;;;;;5.88;1.92;;;10.60;99.90;;;;;;5070001;28;20020;-67
2022/09/27 20:41:49;;;;;;;8.68;2.45;;;10.60;99.90;;;;;;5082000;28;20055;-66
2022/09/27 20:44:17;;;;;;;8.00;1.70;;;10.50;99.90;;;;;;5081346;28;20471;-67
2022/09/27 20:46:44;;;;;;;6.85;1.70;;;10.50;99.90;;;;;;5087134;28;20481;-67
2022/09/27 20:49:20;;;;;;;5.18;1.25;;;10.50;99.90;;;;;;5071189;28;20031;-66
2022/09/27 20:51:50;;;;;;;6.30;1.60;;;10.50;99.90;;;;;;5087367;28;20137;-67
2022/09/27 20:54:16;;;;;;;4.82;1.38;;;10.50;99.90;;;;;;5087201;28;20027;-67
2022/09/27 20:56:47;;;;;;;6.47;1.58;;;10.50;99.90;;;;;;5081682;28;20429;-68
2022/09/27 20:59:15;;;;;;;7.20;1.55;;;10.50;99.90;;;;;;5085138;28;20139;-67
2022/09/27 21:01:43;;;;;;;6.95;1.67;;;10.50;99.90;;;;;;5080758;28;20139;-68
2022/09/27 21:04:09;;;;;;;5.53;1.65;;;10.50;99.90;;;;;;5078750;28;20632;-68
2022/09/27 21:06:35;;;;;;;7.22;1.90;;;10.40;99.90;;;;;;5089323;28;20087;-68
2022/09/27 21:09:04;;;;;;;9.60;1.58;;;10.40;99.90;;;;;;5088929;28;20068;-68
2022/09/27 21:11:30;;;;;;;7.35;1.70;;;10.40;99.90;;;;;;5088730;28;20042;-68
2022/09/27 21:13:55;;;;;;;6.10;1.67;;;10.40;99.90;;;;;;5072975;28;20028;-68
2022/09/27 21:16:24;;;;;;;6.68;1.60;;;10.40;99.90;;;;;;5091256;28;20032;-67
2022/09/27 21:18:51;;;;;;;9.35;1.65;;;10.40;99.90;;;;;;5072967;28;20036;-68
2022/09/27 21:21:18;;;;;;;11.15;2.05;;;10.30;99.90;;;;;;5091405;28;20152;-68
2022/09/27 21:23:45;;;;;;;6.10;1.63;;;10.40;99.90;;;;;;5091318;28;20036;-67
2022/09/27 21:26:13;;;;;;;6.55;1.48;;;10.40;99.90;;;;;;5090657;28;20052;-68
2022/09/27 21:28:41;;;;;;;5.97;1.60;;;10.40;99.90;;;;;;5072333;28;20036;-68
2022/09/27 21:31:12;;;;;;;5.60;1.50;;;10.40;99.90;;;;;;5090251;28;20043;-67
2022/09/27 21:33:39;;;;;;;6.45;1.80;;;10.40;99.90;;;;;;5090758;28;20133;-68
2022/09/27 21:36:07;;;;;;;7.95;1.95;;;10.40;99.90;;;;;;5089369;28;20040;-69
2022/09/27 21:38:33;;;;;;;8.25;1.67;;;10.40;99.90;;;;;;5090512;28;20044;-68
2022/09/27 21:41:04;;;;;;;5.78;1.38;;;10.40;99.90;;;;;;5089620;28;20486;-68
2022/09/27 21:43:33;;;;;;;7.57;1.50;;;10.40;99.90;;;;;;5089992;28;20027;-68
2022/09/27 21:46:10;;;;;;;6.07;1.33;;;10.40;99.90;;;;;;5071599;28;20054;-68
2022/09/27 21:48:37;;;;;;;7.20;1.25;;;10.40;99.90;;;;;;5071092;28;20060;-68
2022/09/27 21:51:06;;;;;;;8.48;2.05;;;10.40;99.90;;;;;;5088896;28;20082;-68
2022/09/27 21:53:33;;;;;;;8.95;1.80;;;10.40;99.90;;;;;;5090665;28;20039;-68
2022/09/27 21:55:59;;;;;;;5.72;1.33;;;10.40;99.90;;;;;;5089517;28;20032;-68